Terminal Aerodrome Forecast
Issued by NWS Mt. Holly, NJ

Home | Current Version | Previous Version | Text Only | Print | Product List | Glossary On
Versions: 1 2 3 4 5 6 7 8 9 10 11 12 13 14 15 16 17 18 19 20 21 22 23 24 25 26 27 28 29 30
000
FTUS41 KPHI 172101 AAA
TAFPHL
TAF AMD
KPHL 172101Z 1721/1824 15008KT P6SM -SN OVC050
     FM172200 14006KT 2SM -SN OVC010
     FM172300 11006KT 1/2SM SN VV002
     FM180300 08006KT 1SM -RASN BR OVC005
     FM180500 VRB03KT 3SM BR OVC005
     FM180700 28010KT P6SM BKN015
     FM180900 29010G20KT P6SM SCT035
     FM181400 28008KT P6SM SCT050=

USA.gov is the U.S. government's official web portal to all federal, state and local government web resources and services.